sensor_id;sensor_type;location;lat;lon;timestamp;temperature;humidity
76567;DHT22;65428;53.194;6.132;2023-04-06T00:01:53;1.90;99.90
76567;DHT22;65428;53.194;6.132;2023-04-06T00:04:18;1.90;99.90
76567;DHT22;65428;53.194;6.132;2023-04-06T00:06:44;2.20;99.90
76567;DHT22;65428;53.194;6.132;2023-04-06T00:09:09;2.00;99.90
76567;DHT22;65428;53.194;6.132;2023-04-06T00:11:35;1.80;99.90
76567;DHT22;65428;53.194;6.132;2023-04-06T00:14:01;1.70;99.90
76567;DHT22;65428;53.194;6.132;2023-04-06T00:16:26;1.80;99.90
76567;DHT22;65428;53.194;6.132;2023-04-06T00:18:52;1.70;99.90
76567;DHT22;65428;53.194;6.132;2023-04-06T00:21:18;1.70;99.90
76567;DHT22;65428;53.194;6.132;2023-04-06T00:23:43;1.70;99.90
76567;DHT22;65428;53.194;6.132;2023-04-06T00:26:09;1.90;99.90
76567;DHT22;65428;53.194;6.132;2023-04-06T00:28:37;1.60;99.90
76567;DHT22;65428;53.194;6.132;2023-04-06T00:31:02;1.90;99.90
76567;DHT22;65428;53.194;6.132;2023-04-06T00:33:28;1.80;99.90
76567;DHT22;65428;53.194;6.132;2023-04-06T00:35:54;1.60;99.90
76567;DHT22;65428;53.194;6.132;2023-04-06T00:38:19;1.60;99.90
76567;DHT22;65428;53.194;6.132;2023-04-06T00:40:46;1.30;99.90
76567;DHT22;65428;53.194;6.132;2023-04-06T00:43:12;1.60;99.90
76567;DHT22;65428;53.194;6.132;2023-04-06T00:45:39;1.60;99.90
76567;DHT22;65428;53.194;6.132;2023-04-06T00:48:05;1.40;99.90
76567;DHT22;65428;53.194;6.132;2023-04-06T00:50:31;1.60;99.90
76567;DHT22;65428;53.194;6.132;2023-04-06T00:52:58;1.50;99.90
76567;DHT22;65428;53.194;6.132;2023-04-06T00:55:23;1.50;99.90
76567;DHT22;65428;53.194;6.132;2023-04-06T00:57:49;1.50;99.90
76567;DHT22;65428;53.194;6.132;2023-04-06T01:00:16;1.50;99.90
76567;DHT22;65428;53.194;6.132;2023-04-06T01:02:42;1.40;99.90
76567;DHT22;65428;53.194;6.132;2023-04-06T01:05:08;1.50;99.90
76567;DHT22;65428;53.194;6.132;2023-04-06T01:07:34;1.50;99.90
76567;DHT22;65428;53.194;6.132;2023-04-06T01:09:59;1.90;99.90
76567;DHT22;65428;53.194;6.132;2023-04-06T01:12:25;1.60;99.90
76567;DHT22;65428;53.194;6.132;2023-04-06T01:14:51;1.40;99.90
76567;DHT22;65428;53.194;6.132;2023-04-06T01:17:17;1.50;99.90
76567;DHT22;65428;53.194;6.132;2023-04-06T01:19:42;1.40;99.90
76567;DHT22;65428;53.194;6.132;2023-04-06T01:22:15;1.40;99.90
76567;DHT22;65428;53.194;6.132;2023-04-06T01:24:41;1.40;99.90
76567;DHT22;65428;53.194;6.132;2023-04-06T01:27:07;1.50;99.90
76567;DHT22;65428;53.194;6.132;2023-04-06T01:29:32;1.40;99.90
76567;DHT22;65428;53.194;6.132;2023-04-06T01:31:58;1.40;99.90
76567;DHT22;65428;53.194;6.132;2023-04-06T01:34:24;1.50;99.90
76567;DHT22;65428;53.194;6.132;2023-04-06T01:36:49;1.50;99.90
76567;DHT22;65428;53.194;6.132;2023-04-06T01:39:15;1.30;99.90
76567;DHT22;65428;53.194;6.132;2023-04-06T01:41:41;1.50;99.90
76567;DHT22;65428;53.194;6.132;2023-04-06T01:44:07;1.40;99.90
76567;DHT22;65428;53.194;6.132;2023-04-06T01:46:32;1.50;99.90
76567;DHT22;65428;53.194;6.132;2023-04-06T01:48:58;1.50;99.90
76567;DHT22;65428;53.194;6.132;2023-04-06T01:51:24;1.60;99.90
76567;DHT22;65428;53.194;6.132;2023-04-06T01:53:51;1.60;99.90
76567;DHT22;65428;53.194;6.132;2023-04-06T01:56:16;1.60;99.90
76567;DHT22;65428;53.194;6.132;2023-04-06T01:58:42;1.50;99.90
76567;DHT22;65428;53.194;6.132;2023-04-06T02:01:08;1.60;99.90
76567;DHT22;65428;53.194;6.132;2023-04-06T02:03:34;1.70;99.90
76567;DHT22;65428;53.194;6.132;2023-04-06T02:05:59;1.70;99.90
76567;DHT22;65428;53.194;6.132;2023-04-06T02:08:25;1.60;99.90
76567;DHT22;65428;53.194;6.132;2023-04-06T02:10:51;1.60;99.90
76567;DHT22;65428;53.194;6.132;2023-04-06T02:13:17;1.60;99.90
76567;DHT22;65428;53.194;6.132;2023-04-06T02:15:43;1.60;99.90
76567;DHT22;65428;53.194;6.132;2023-04-06T02:18:08;1.60;99.90
76567;DHT22;65428;53.194;6.132;2023-04-06T02:20:35;1.50;99.90
76567;DHT22;65428;53.194;6.132;2023-04-06T02:23:01;1.60;99.90
76567;DHT22;65428;53.194;6.132;2023-04-06T02:25:26;1.60;99.90
76567;DHT22;65428;53.194;6.132;2023-04-06T02:27:52;1.60;99.90
76567;DHT22;65428;53.194;6.132;2023-04-06T02:30:18;1.60;99.90
76567;DHT22;65428;53.194;6.132;2023-04-06T02:32:43;1.80;99.90
76567;DHT22;65428;53.194;6.132;2023-04-06T02:35:09;1.60;99.90
76567;DHT22;65428;53.194;6.132;2023-04-06T02:37:35;1.60;99.90
76567;DHT22;65428;53.194;6.132;2023-04-06T02:40:01;1.60;99.90
76567;DHT22;65428;53.194;6.132;2023-04-06T02:42:26;1.50;99.90
76567;DHT22;65428;53.194;6.132;2023-04-06T02:44:52;1.60;99.90
76567;DHT22;65428;53.194;6.132;2023-04-06T02:47:17;1.60;99.90
76567;DHT22;65428;53.194;6.132;2023-04-06T02:49:43;1.70;99.90
76567;DHT22;65428;53.194;6.132;2023-04-06T02:52:09;1.50;99.90
76567;DHT22;65428;53.194;6.132;2023-04-06T02:54:34;1.70;99.90
76567;DHT22;65428;53.194;6.132;2023-04-06T02:57:00;1.70;99.90
76567;DHT22;65428;53.194;6.132;2023-04-06T02:59:26;1.60;99.90
76567;DHT22;65428;53.194;6.132;2023-04-06T03:01:52;1.50;99.90
76567;DHT22;65428;53.194;6.132;2023-04-06T03:04:17;1.50;99.90
76567;DHT22;65428;53.194;6.132;2023-04-06T03:06:43;1.50;99.90
76567;DHT22;65428;53.194;6.132;2023-04-06T03:09:08;1.60;99.90
76567;DHT22;65428;53.194;6.132;2023-04-06T03:11:34;1.60;99.90
76567;DHT22;65428;53.194;6.132;2023-04-06T03:14:00;1.50;99.90
76567;DHT22;65428;53.194;6.132;2023-04-06T03:16:26;1.60;99.90
76567;DHT22;65428;53.194;6.132;2023-04-06T03:18:51;1.60;99.90
76567;DHT22;65428;53.194;6.132;2023-04-06T03:21:17;1.50;99.90
76567;DHT22;65428;53.194;6.132;2023-04-06T03:23:44;1.50;99.90
76567;DHT22;65428;53.194;6.132;2023-04-06T03:26:10;1.40;99.90
76567;DHT22;65428;53.194;6.132;2023-04-06T03:28:38;1.40;99.90
76567;DHT22;65428;53.194;6.132;2023-04-06T03:31:03;1.40;99.90
76567;DHT22;65428;53.194;6.132;2023-04-06T03:33:29;1.60;99.90
76567;DHT22;65428;53.194;6.132;2023-04-06T03:35:55;1.40;99.90
76567;DHT22;65428;53.194;6.132;2023-04-06T03:38:20;1.50;99.90
76567;DHT22;65428;53.194;6.132;2023-04-06T03:40:46;1.40;99.90
76567;DHT22;65428;53.194;6.132;2023-04-06T03:43:12;1.40;99.90
76567;DHT22;65428;53.194;6.132;2023-04-06T03:45:37;1.30;99.90
76567;DHT22;65428;53.194;6.132;2023-04-06T03:48:04;1.30;99.90
76567;DHT22;65428;53.194;6.132;2023-04-06T03:50:30;1.30;99.90
76567;DHT22;65428;53.194;6.132;2023-04-06T03:52:55;1.20;99.90
76567;DHT22;65428;53.194;6.132;2023-04-06T03:55:21;1.20;99.90
76567;DHT22;65428;53.194;6.132;2023-04-06T03:57:47;1.30;99.90
76567;DHT22;65428;53.194;6.132;2023-04-06T04:00:13;1.20;99.90
76567;DHT22;65428;53.194;6.132;2023-04-06T04:02:39;1.20;99.90
76567;DHT22;65428;53.194;6.132;2023-04-06T04:05:05;1.10;99.90
76567;DHT22;65428;53.194;6.132;2023-04-06T04:07:31;1.10;99.90
76567;DHT22;65428;53.194;6.132;2023-04-06T04:09:57;1.10;99.90
76567;DHT22;65428;53.194;6.132;2023-04-06T04:12:22;1.10;99.90
76567;DHT22;65428;53.194;6.132;2023-04-06T04:14:48;1.10;99.90
76567;DHT22;65428;53.194;6.132;2023-04-06T04:17:13;1.10;99.90
76567;DHT22;65428;53.194;6.132;2023-04-06T04:19:39;1.00;99.90
76567;DHT22;65428;53.194;6.132;2023-04-06T04:22:06;1.00;99.90
76567;DHT22;65428;53.194;6.132;2023-04-06T04:24:32;1.10;99.90
76567;DHT22;65428;53.194;6.132;2023-04-06T04:26:58;1.00;99.90
76567;DHT22;65428;53.194;6.132;2023-04-06T04:29:23;1.00;99.90
76567;DHT22;65428;53.194;6.132;2023-04-06T04:31:49;1.00;99.90
76567;DHT22;65428;53.194;6.132;2023-04-06T04:34:15;1.00;99.90
76567;DHT22;65428;53.194;6.132;2023-04-06T04:36:41;1.10;99.90
76567;DHT22;65428;53.194;6.132;2023-04-06T04:39:07;0.90;99.90
76567;DHT22;65428;53.194;6.132;2023-04-06T04:41:33;1.00;99.90
76567;DHT22;65428;53.194;6.132;2023-04-06T04:43:59;1.10;99.90
76567;DHT22;65428;53.194;6.132;2023-04-06T04:46:24;0.90;99.90
76567;DHT22;65428;53.194;6.132;2023-04-06T04:48:50;0.90;99.90
76567;DHT22;65428;53.194;6.132;2023-04-06T04:51:16;1.00;99.90
76567;DHT22;65428;53.194;6.132;2023-04-06T04:53:41;1.00;99.90
76567;DHT22;65428;53.194;6.132;2023-04-06T04:56:07;1.00;99.90
76567;DHT22;65428;53.194;6.132;2023-04-06T04:58:33;1.00;99.90
76567;DHT22;65428;53.194;6.132;2023-04-06T05:00:59;0.90;99.90
76567;DHT22;65428;53.194;6.132;2023-04-06T05:03:26;1.00;99.90
76567;DHT22;65428;53.194;6.132;2023-04-06T05:05:52;1.00;99.90
76567;DHT22;65428;53.194;6.132;2023-04-06T05:08:18;0.90;99.90
76567;DHT22;65428;53.194;6.132;2023-04-06T05:10:43;1.20;99.90
76567;DHT22;65428;53.194;6.132;2023-04-06T05:13:13;1.00;99.90
76567;DHT22;65428;53.194;6.132;2023-04-06T05:15:40;1.10;99.90
76567;DHT22;65428;53.194;6.132;2023-04-06T05:18:09;1.00;99.90
76567;DHT22;65428;53.194;6.132;2023-04-06T05:20:35;1.10;99.90
76567;DHT22;65428;53.194;6.132;2023-04-06T05:23:01;1.00;99.90
76567;DHT22;65428;53.194;6.132;2023-04-06T05:25:27;1.30;99.90
76567;DHT22;65428;53.194;6.132;2023-04-06T05:27:53;1.40;99.90
76567;DHT22;65428;53.194;6.132;2023-04-06T05:30:19;1.40;99.90
76567;DHT22;65428;53.194;6.132;2023-04-06T05:32:45;1.40;99.90
76567;DHT22;65428;53.194;6.132;2023-04-06T05:35:11;1.50;99.90
76567;DHT22;65428;53.194;6.132;2023-04-06T05:37:38;1.50;99.90
76567;DHT22;65428;53.194;6.132;2023-04-06T05:40:04;1.50;99.90
76567;DHT22;65428;53.194;6.132;2023-04-06T05:42:42;1.50;99.90
76567;DHT22;65428;53.194;6.132;2023-04-06T05:45:09;1.60;99.90
76567;DHT22;65428;53.194;6.132;2023-04-06T05:47:42;1.70;99.90
76567;DHT22;65428;53.194;6.132;2023-04-06T05:50:10;1.80;99.90
76567;DHT22;65428;53.194;6.132;2023-04-06T05:52:35;1.70;99.90
76567;DHT22;65428;53.194;6.132;2023-04-06T05:55:02;1.90;99.90
76567;DHT22;65428;53.194;6.132;2023-04-06T05:57:28;1.90;99.90
76567;DHT22;65428;53.194;6.132;2023-04-06T05:59:54;1.90;99.90
76567;DHT22;65428;53.194;6.132;2023-04-06T06:02:21;2.00;99.90
76567;DHT22;65428;53.194;6.132;2023-04-06T06:04:47;2.20;99.90
76567;DHT22;65428;53.194;6.132;2023-04-06T06:07:14;2.20;99.90
76567;DHT22;65428;53.194;6.132;2023-04-06T06:09:40;2.20;99.90
76567;DHT22;65428;53.194;6.132;2023-04-06T06:12:06;2.40;99.90
76567;DHT22;65428;53.194;6.132;2023-04-06T06:14:34;2.30;99.90
76567;DHT22;65428;53.194;6.132;2023-04-06T06:17:00;2.40;99.90
76567;DHT22;65428;53.194;6.132;2023-04-06T06:19:28;2.60;99.90
76567;DHT22;65428;53.194;6.132;2023-04-06T06:21:54;2.70;99.90
76567;DHT22;65428;53.194;6.132;2023-04-06T06:24:20;2.70;99.90
76567;DHT22;65428;53.194;6.132;2023-04-06T06:26:46;2.80;99.70
76567;DHT22;65428;53.194;6.132;2023-04-06T06:29:14;2.90;99.40
76567;DHT22;65428;53.194;6.132;2023-04-06T06:31:40;3.00;99.50
76567;DHT22;65428;53.194;6.132;2023-04-06T06:34:06;3.10;98.50
76567;DHT22;65428;53.194;6.132;2023-04-06T06:36:32;3.30;97.50
76567;DHT22;65428;53.194;6.132;2023-04-06T06:38:57;3.50;97.80
76567;DHT22;65428;53.194;6.132;2023-04-06T06:41:25;3.60;97.30
76567;DHT22;65428;53.194;6.132;2023-04-06T06:43:51;3.70;96.80
76567;DHT22;65428;53.194;6.132;2023-04-06T06:46:17;3.90;96.30
76567;DHT22;65428;53.194;6.132;2023-04-06T06:48:42;3.90;95.70
76567;DHT22;65428;53.194;6.132;2023-04-06T06:51:08;4.00;95.20
76567;DHT22;65428;53.194;6.132;2023-04-06T06:53:35;4.10;95.90
76567;DHT22;65428;53.194;6.132;2023-04-06T06:56:00;4.10;95.50
76567;DHT22;65428;53.194;6.132;2023-04-06T06:58:26;4.10;94.00
76567;DHT22;65428;53.194;6.132;2023-04-06T07:00:59;4.30;93.70
76567;DHT22;65428;53.194;6.132;2023-04-06T07:03:25;4.50;94.30
76567;DHT22;65428;53.194;6.132;2023-04-06T07:05:51;4.60;91.80
76567;DHT22;65428;53.194;6.132;2023-04-06T07:08:24;4.70;91.60
76567;DHT22;65428;53.194;6.132;2023-04-06T07:10:51;5.00;90.70
76567;DHT22;65428;53.194;6.132;2023-04-06T07:13:26;4.90;91.80
76567;DHT22;65428;53.194;6.132;2023-04-06T07:15:53;5.00;90.60
76567;DHT22;65428;53.194;6.132;2023-04-06T07:18:19;5.00;89.50
76567;DHT22;65428;53.194;6.132;2023-04-06T07:20:54;5.20;87.70
76567;DHT22;65428;53.194;6.132;2023-04-06T07:23:20;5.20;87.10
76567;DHT22;65428;53.194;6.132;2023-04-06T07:25:46;5.40;84.80
76567;DHT22;65428;53.194;6.132;2023-04-06T07:28:11;5.50;81.90
76567;DHT22;65428;53.194;6.132;2023-04-06T07:30:38;5.80;84.10
76567;DHT22;65428;53.194;6.132;2023-04-06T07:33:04;5.80;82.70
76567;DHT22;65428;53.194;6.132;2023-04-06T07:35:31;6.00;81.50
76567;DHT22;65428;53.194;6.132;2023-04-06T07:37:56;6.10;80.90
76567;DHT22;65428;53.194;6.132;2023-04-06T07:40:22;6.40;80.30
76567;DHT22;65428;53.194;6.132;2023-04-06T07:42:48;6.50;77.80
76567;DHT22;65428;53.194;6.132;2023-04-06T07:45:14;6.70;74.30
76567;DHT22;65428;53.194;6.132;2023-04-06T07:47:41;7.00;72.00
76567;DHT22;65428;53.194;6.132;2023-04-06T07:50:07;7.10;73.50
76567;DHT22;65428;53.194;6.132;2023-04-06T07:52:36;7.20;70.20
76567;DHT22;65428;53.194;6.132;2023-04-06T07:55:26;7.40;70.00
76567;DHT22;65428;53.194;6.132;2023-04-06T07:57:51;7.80;67.60
76567;DHT22;65428;53.194;6.132;2023-04-06T08:00:25;7.80;67.60
76567;DHT22;65428;53.194;6.132;2023-04-06T08:02:53;7.80;69.00
76567;DHT22;65428;53.194;6.132;2023-04-06T08:12:17;8.60;64.00
76567;DHT22;65428;53.194;6.132;2023-04-06T08:14:48;8.80;64.70
76567;DHT22;65428;53.194;6.132;2023-04-06T08:17:33;8.50;61.10
76567;DHT22;65428;53.194;6.132;2023-04-06T08:20:23;9.00;60.80
76567;DHT22;65428;53.194;6.132;2023-04-06T08:22:48;9.10;61.20
76567;DHT22;65428;53.194;6.132;2023-04-06T08:25:36;9.20;60.80
76567;DHT22;65428;53.194;6.132;2023-04-06T08:28:10;9.30;59.70
76567;DHT22;65428;53.194;6.132;2023-04-06T08:33:30;9.60;58.60
76567;DHT22;65428;53.194;6.132;2023-04-06T08:36:11;9.50;59.20
76567;DHT22;65428;53.194;6.132;2023-04-06T08:38:46;9.60;59.70
76567;DHT22;65428;53.194;6.132;2023-04-06T08:41:13;9.60;56.70
76567;DHT22;65428;53.194;6.132;2023-04-06T08:44:00;10.10;57.20
76567;DHT22;65428;53.194;6.132;2023-04-06T08:46:32;9.80;55.70
76567;DHT22;65428;53.194;6.132;2023-04-06T08:49:10;9.90;55.60
76567;DHT22;65428;53.194;6.132;2023-04-06T08:51:39;10.30;56.90
76567;DHT22;65428;53.194;6.132;2023-04-06T08:54:19;10.30;55.30
76567;DHT22;65428;53.194;6.132;2023-04-06T08:56:52;10.30;54.00
76567;DHT22;65428;53.194;6.132;2023-04-06T08:59:31;10.50;54.30
76567;DHT22;65428;53.194;6.132;2023-04-06T09:02:27;10.80;53.00
76567;DHT22;65428;53.194;6.132;2023-04-06T09:05:02;10.70;51.70
76567;DHT22;65428;53.194;6.132;2023-04-06T09:07:39;11.10;51.60
76567;DHT22;65428;53.194;6.132;2023-04-06T09:10:34;10.80;52.20
76567;DHT22;65428;53.194;6.132;2023-04-06T09:13:21;10.50;51.40
76567;DHT22;65428;53.194;6.132;2023-04-06T09:19:12;10.90;52.40
76567;DHT22;65428;53.194;6.132;2023-04-06T09:21:45;11.00;52.70
76567;DHT22;65428;53.194;6.132;2023-04-06T09:24:18;11.00;53.40
76567;DHT22;65428;53.194;6.132;2023-04-06T09:27:06;11.10;53.80
76567;DHT22;65428;53.194;6.132;2023-04-06T09:29:35;11.20;52.40
76567;DHT22;65428;53.194;6.132;2023-04-06T09:32:19;11.40;52.40
76567;DHT22;65428;53.194;6.132;2023-04-06T09:34:51;11.10;51.90
76567;DHT22;65428;53.194;6.132;2023-04-06T09:37:18;11.50;53.00
76567;DHT22;65428;53.194;6.132;2023-04-06T09:39:45;12.10;53.30
76567;DHT22;65428;53.194;6.132;2023-04-06T09:42:29;12.10;52.50
76567;DHT22;65428;53.194;6.132;2023-04-06T09:49:02;12.40;49.50
76567;DHT22;65428;53.194;6.132;2023-04-06T09:51:31;12.40;49.80
76567;DHT22;65428;53.194;6.132;2023-04-06T09:53:57;12.40;49.70
76567;DHT22;65428;53.194;6.132;2023-04-06T09:57:52;12.70;51.70
76567;DHT22;65428;53.194;6.132;2023-04-06T10:06:55;13.30;48.90
76567;DHT22;65428;53.194;6.132;2023-04-06T10:09:26;14.10;47.40
76567;DHT22;65428;53.194;6.132;2023-04-06T10:12:29;13.70;47.10
76567;DHT22;65428;53.194;6.132;2023-04-06T10:15:18;13.90;45.30
76567;DHT22;65428;53.194;6.132;2023-04-06T10:18:26;13.90;46.70
76567;DHT22;65428;53.194;6.132;2023-04-06T10:21:08;14.10;46.30
76567;DHT22;65428;53.194;6.132;2023-04-06T10:24:14;14.20;45.40
76567;DHT22;65428;53.194;6.132;2023-04-06T10:26:39;14.30;45.10
76567;DHT22;65428;53.194;6.132;2023-04-06T10:29:05;14.40;45.40
76567;DHT22;65428;53.194;6.132;2023-04-06T10:31:41;14.50;43.80
76567;DHT22;65428;53.194;6.132;2023-04-06T10:34:08;14.70;44.30
76567;DHT22;65428;53.194;6.132;2023-04-06T10:36:40;14.90;42.40
76567;DHT22;65428;53.194;6.132;2023-04-06T10:39:24;15.00;41.80
76567;DHT22;65428;53.194;6.132;2023-04-06T10:41:56;14.90;42.60
76567;DHT22;65428;53.194;6.132;2023-04-06T10:51:30;15.20;43.20
76567;DHT22;65428;53.194;6.132;2023-04-06T10:54:25;15.20;41.40
76567;DHT22;65428;53.194;6.132;2023-04-06T10:57:00;15.10;40.70
76567;DHT22;65428;53.194;6.132;2023-04-06T11:00:01;15.10;41.50
76567;DHT22;65428;53.194;6.132;2023-04-06T11:06:03;15.20;39.90
76567;DHT22;65428;53.194;6.132;2023-04-06T11:12:07;15.30;42.60
76567;DHT22;65428;53.194;6.132;2023-04-06T11:24:51;14.90;42.10
76567;DHT22;65428;53.194;6.132;2023-04-06T11:27:21;15.10;43.10
76567;DHT22;65428;53.194;6.132;2023-04-06T11:36:23;15.20;41.10
76567;DHT22;65428;53.194;6.132;2023-04-06T11:38:49;15.20;40.90
76567;DHT22;65428;53.194;6.132;2023-04-06T11:41:27;15.20;43.00
76567;DHT22;65428;53.194;6.132;2023-04-06T11:43:55;15.20;42.80
76567;DHT22;65428;53.194;6.132;2023-04-06T11:46:25;15.40;41.60
76567;DHT22;65428;53.194;6.132;2023-04-06T11:49:10;15.40;41.50
76567;DHT22;65428;53.194;6.132;2023-04-06T11:51:46;15.00;42.40
76567;DHT22;65428;53.194;6.132;2023-04-06T11:54:35;15.60;42.10
76567;DHT22;65428;53.194;6.132;2023-04-06T11:57:32;15.30;41.00
76567;DHT22;65428;53.194;6.132;2023-04-06T11:59:59;15.40;41.60
76567;DHT22;65428;53.194;6.132;2023-04-06T12:05:58;15.00;42.70
76567;DHT22;65428;53.194;6.132;2023-04-06T12:11:03;14.80;43.80
76567;DHT22;65428;53.194;6.132;2023-04-06T12:13:40;14.70;43.70
76567;DHT22;65428;53.194;6.132;2023-04-06T12:16:13;14.90;44.70
76567;DHT22;65428;53.194;6.132;2023-04-06T12:18:42;14.60;43.60
76567;DHT22;65428;53.194;6.132;2023-04-06T12:21:08;14.90;44.00
76567;DHT22;65428;53.194;6.132;2023-04-06T12:23:42;14.40;42.70
76567;DHT22;65428;53.194;6.132;2023-04-06T12:26:52;14.50;43.60
76567;DHT22;65428;53.194;6.132;2023-04-06T12:29:27;14.50;44.50
76567;DHT22;65428;53.194;6.132;2023-04-06T12:32:00;14.30;42.20
76567;DHT22;65428;53.194;6.132;2023-04-06T12:34:31;14.60;43.50
76567;DHT22;65428;53.194;6.132;2023-04-06T12:37:29;14.70;43.60
76567;DHT22;65428;53.194;6.132;2023-04-06T12:39:57;14.50;44.00
76567;DHT22;65428;53.194;6.132;2023-04-06T12:42:26;14.40;44.30
76567;DHT22;65428;53.194;6.132;2023-04-06T12:44:54;15.00;45.00
76567;DHT22;65428;53.194;6.132;2023-04-06T12:47:23;14.90;44.50
76567;DHT22;65428;53.194;6.132;2023-04-06T12:56:54;15.40;43.60
76567;DHT22;65428;53.194;6.132;2023-04-06T12:59:27;15.60;43.40
76567;DHT22;65428;53.194;6.132;2023-04-06T13:01:56;15.80;42.90
76567;DHT22;65428;53.194;6.132;2023-04-06T13:04:23;15.60;44.30
76567;DHT22;65428;53.194;6.132;2023-04-06T13:06:48;15.60;44.40
76567;DHT22;65428;53.194;6.132;2023-04-06T13:09:14;15.40;42.70
76567;DHT22;65428;53.194;6.132;2023-04-06T13:11:40;15.20;43.50
76567;DHT22;65428;53.194;6.132;2023-04-06T13:14:06;14.90;44.50
76567;DHT22;65428;53.194;6.132;2023-04-06T13:16:32;14.70;44.40
76567;DHT22;65428;53.194;6.132;2023-04-06T13:18:58;14.50;46.30
76567;DHT22;65428;53.194;6.132;2023-04-06T13:21:23;14.50;49.00
76567;DHT22;65428;53.194;6.132;2023-04-06T13:23:52;14.60;47.40
76567;DHT22;65428;53.194;6.132;2023-04-06T13:29:33;14.80;46.30
76567;DHT22;65428;53.194;6.132;2023-04-06T13:32:02;15.00;47.20
76567;DHT22;65428;53.194;6.132;2023-04-06T13:34:46;14.90;48.10
76567;DHT22;65428;53.194;6.132;2023-04-06T13:37:13;14.50;48.10
76567;DHT22;65428;53.194;6.132;2023-04-06T13:39:45;14.50;47.60
76567;DHT22;65428;53.194;6.132;2023-04-06T13:42:11;14.30;47.60
76567;DHT22;65428;53.194;6.132;2023-04-06T13:45:00;14.10;49.30
76567;DHT22;65428;53.194;6.132;2023-04-06T13:47:30;14.10;50.30
76567;DHT22;65428;53.194;6.132;2023-04-06T13:49:59;13.80;49.80
76567;DHT22;65428;53.194;6.132;2023-04-06T13:55:58;13.60;51.10
76567;DHT22;65428;53.194;6.132;2023-04-06T13:58:36;13.40;53.40
76567;DHT22;65428;53.194;6.132;2023-04-06T14:11:18;12.70;55.80
76567;DHT22;65428;53.194;6.132;2023-04-06T14:13:44;13.20;57.60
76567;DHT22;65428;53.194;6.132;2023-04-06T14:16:13;12.90;57.40
76567;DHT22;65428;53.194;6.132;2023-04-06T14:18:38;12.50;58.50
76567;DHT22;65428;53.194;6.132;2023-04-06T14:21:25;12.40;60.60
76567;DHT22;65428;53.194;6.132;2023-04-06T14:23:50;12.20;64.10
76567;DHT22;65428;53.194;6.132;2023-04-06T14:26:21;12.60;66.60
76567;DHT22;65428;53.194;6.132;2023-04-06T14:28:48;12.20;67.80
76567;DHT22;65428;53.194;6.132;2023-04-06T14:31:15;11.90;74.00
76567;DHT22;65428;53.194;6.132;2023-04-06T14:33:44;12.10;75.10
76567;DHT22;65428;53.194;6.132;2023-04-06T14:36:21;11.70;82.60
76567;DHT22;65428;53.194;6.132;2023-04-06T14:38:46;11.50;86.20
76567;DHT22;65428;53.194;6.132;2023-04-06T14:41:16;11.50;90.30
76567;DHT22;65428;53.194;6.132;2023-04-06T14:43:43;11.50;95.30
76567;DHT22;65428;53.194;6.132;2023-04-06T14:46:09;11.50;98.60
76567;DHT22;65428;53.194;6.132;2023-04-06T14:48:35;11.40;98.20
76567;DHT22;65428;53.194;6.132;2023-04-06T14:51:01;11.60;99.90
76567;DHT22;65428;53.194;6.132;2023-04-06T14:53:27;11.10;99.90
76567;DHT22;65428;53.194;6.132;2023-04-06T14:55:53;11.00;99.90
76567;DHT22;65428;53.194;6.132;2023-04-06T14:58:26;10.90;99.90
76567;DHT22;65428;53.194;6.132;2023-04-06T15:00:58;11.00;99.90
76567;DHT22;65428;53.194;6.132;2023-04-06T15:03:28;11.10;99.90
76567;DHT22;65428;53.194;6.132;2023-04-06T15:05:54;10.80;99.90
76567;DHT22;65428;53.194;6.132;2023-04-06T15:08:22;10.90;99.90
76567;DHT22;65428;53.194;6.132;2023-04-06T15:10:50;10.60;99.90
76567;DHT22;65428;53.194;6.132;2023-04-06T15:13:17;10.50;99.90
76567;DHT22;65428;53.194;6.132;2023-04-06T15:16:00;10.80;99.90
76567;DHT22;65428;53.194;6.132;2023-04-06T15:18:28;10.70;99.90
76567;DHT22;65428;53.194;6.132;2023-04-06T15:20:54;10.50;99.90
76567;DHT22;65428;53.194;6.132;2023-04-06T15:23:22;10.50;99.90
76567;DHT22;65428;53.194;6.132;2023-04-06T15:25:48;10.10;99.90
76567;DHT22;65428;53.194;6.132;2023-04-06T15:28:14;10.30;99.90
76567;DHT22;65428;53.194;6.132;2023-04-06T15:30:40;10.30;99.90
76567;DHT22;65428;53.194;6.132;2023-04-06T15:33:07;10.30;99.90
76567;DHT22;65428;53.194;6.132;2023-04-06T15:35:33;9.90;99.90
76567;DHT22;65428;53.194;6.132;2023-04-06T15:38:04;10.20;99.90
76567;DHT22;65428;53.194;6.132;2023-04-06T15:40:33;10.40;99.90
76567;DHT22;65428;53.194;6.132;2023-04-06T15:42:59;10.30;99.90
76567;DHT22;65428;53.194;6.132;2023-04-06T15:45:25;10.10;99.90
76567;DHT22;65428;53.194;6.132;2023-04-06T15:47:50;9.90;99.90
76567;DHT22;65428;53.194;6.132;2023-04-06T15:50:16;10.00;99.90
76567;DHT22;65428;53.194;6.132;2023-04-06T15:52:52;9.70;99.90
76567;DHT22;65428;53.194;6.132;2023-04-06T15:55:26;9.60;99.90
76567;DHT22;65428;53.194;6.132;2023-04-06T15:57:55;9.90;99.90
76567;DHT22;65428;53.194;6.132;2023-04-06T16:00:21;9.30;99.90
76567;DHT22;65428;53.194;6.132;2023-04-06T16:02:47;9.30;99.90
76567;DHT22;65428;53.194;6.132;2023-04-06T16:05:12;9.30;99.90
76567;DHT22;65428;53.194;6.132;2023-04-06T16:07:41;9.20;99.90
76567;DHT22;65428;53.194;6.132;2023-04-06T16:10:15;9.20;99.90
76567;DHT22;65428;53.194;6.132;2023-04-06T16:12:41;9.40;99.90
76567;DHT22;65428;53.194;6.132;2023-04-06T16:15:08;9.10;99.90
76567;DHT22;65428;53.194;6.132;2023-04-06T16:17:34;9.10;99.90
76567;DHT22;65428;53.194;6.132;2023-04-06T16:20:00;9.10;99.90
76567;DHT22;65428;53.194;6.132;2023-04-06T16:22:26;9.20;99.90
76567;DHT22;65428;53.194;6.132;2023-04-06T16:24:56;9.20;99.90
76567;DHT22;65428;53.194;6.132;2023-04-06T16:27:22;9.00;99.90
76567;DHT22;65428;53.194;6.132;2023-04-06T16:30:00;8.90;99.90
76567;DHT22;65428;53.194;6.132;2023-04-06T16:32:28;9.00;99.90
76567;DHT22;65428;53.194;6.132;2023-04-06T16:35:16;8.80;99.90
76567;DHT22;65428;53.194;6.132;2023-04-06T16:38:06;8.60;99.90
76567;DHT22;65428;53.194;6.132;2023-04-06T16:41:17;8.90;99.90
76567;DHT22;65428;53.194;6.132;2023-04-06T16:43:37;8.80;99.90
76567;DHT22;65428;53.194;6.132;2023-04-06T16:46:05;8.90;99.90
76567;DHT22;65428;53.194;6.132;2023-04-06T16:48:31;8.70;99.90
76567;DHT22;65428;53.194;6.132;2023-04-06T16:51:07;8.60;99.90
76567;DHT22;65428;53.194;6.132;2023-04-06T16:53:38;8.80;99.90
76567;DHT22;65428;53.194;6.132;2023-04-06T16:56:04;9.00;99.90
76567;DHT22;65428;53.194;6.132;2023-04-06T16:58:39;8.60;99.90
76567;DHT22;65428;53.194;6.132;2023-04-06T17:04:28;8.60;99.90
76567;DHT22;65428;53.194;6.132;2023-04-06T17:07:23;8.50;99.90
76567;DHT22;65428;53.194;6.132;2023-04-06T17:23:21;8.20;99.90
76567;DHT22;65428;53.194;6.132;2023-04-06T17:58:28;7.80;99.90
76567;DHT22;65428;53.194;6.132;2023-04-06T18:34:31;7.40;99.90
76567;DHT22;65428;53.194;6.132;2023-04-06T19:13:25;7.40;99.90
76567;DHT22;65428;53.194;6.132;2023-04-06T19:53:14;7.50;99.90
76567;DHT22;65428;53.194;6.132;2023-04-06T20:03:00;7.50;99.90
76567;DHT22;65428;53.194;6.132;2023-04-06T20:37:17;7.50;99.90